BO-0009 weather

Saipiru Airport
Cordillera, Santa Cruz Department, Bolivia

Public forecast

Using degrees Celsius for public forecast. Weather courtesy of forecast.io.

METAR (pilot weather report)

Closest report is Camiri Airport, 45.0 nm (83.4 km) SW. Retrieved 2019/03/19 14:00 UTC (31 minutes ago):

SLCA 191400Z 00000KT 9999 BKN013 BKN070 24/22 Q1013

TAF (pilot weather forecast)

Forecast is more than 6 hours old.

Closest forecast is El Trompillo Airport, 95.0 nm (176.0 km) N. Retrieved 2019/03/19 06:03 UTC (8 hours ago):

TAF SLET 190355Z 1906/2006 33005KT 8000 -RA BKN010 BKN070 FEW030CB TX32/1919Z TN21/1910Z BECMG 1914/1916 33015G25KT 9999 NSW SCT012 BKN017 TEMPO 1918/1920 8000 SHRA BKN023 FEW030CB BECMG 1923/2002 33010KT 9999 NSW SCT017